Pagrindinis puslapis
METAR-TAF:

METAR-TAF

Oro uostai :

Roma, Italija

platuma: 41-57N, ilguma: 012-30E, Aukštis: 18 m

Dabartinis oras

Ataskaita buvo paskelbta 1 valandą ir 1 minutes, ne 09:50 UTC
Vėjas 4 kt iš Šiaurės, svyruoja nuo Šiaurės Vakarų ir Šiaurės/Šiaurės Rytų
Temperatūra 23°C
Drėgmė 53%
Slėgis 1022 hPa
Matomumas 10 km arba daugiau
nėra debesų žemiau 1500 m ir nėra kamuolinių lietaus debesų

METAR: LIRU 210950Z 35004KT 310V020 CAVOK 23/13 Q1022

Laikas: 12:51 (10:51 UTC)

Prognozė

Ataskaita buvo paskelbta 2 valandos ir 51 minutes, ne 08:00 UTC
Prognozė galioja nuo 21 metu 09 UTC su 21 metu 18 UTC
Vėjas 5 kt nuo kintamojo kryptimis
Matomumas 10 km arba daugiau
nėra debesų žemiau 1500 m ir nėra kamuolinių lietaus debesų

TAF: LIRU 210800Z 2109/2118 VRB05KT CAVOK

Orai ataskaitas ir orų prognozės (METAR, TAF).

turimą stotys yra geltonos ir raudonos taškus žemėlapyje.

Perkelti pele per norėdami pamatyti stoties vardą.

Tada spustelėkite, norėdami matyti oro stebėjimo ir prognozės.

Norėdami pakeisti žemėlapį: spustelėkite ant žalios mygtukų su juodo kryžiaus žemyn,; žalią mygtuką su brūkšneliu, jei norite nutolinti; arba žalių rodyklių gretimoms žemėlapius.


METAR-TAF: